createdAt,value
2022-08-08T05:46:29.499Z,14.69
2022-08-08T05:49:10.328Z,14.75
2022-08-08T05:51:48.877Z,14.83
2022-08-08T05:54:28.850Z,14.77
2022-08-08T05:57:57.525Z,14.98
2022-08-08T06:00:22.654Z,14.98
2022-08-08T06:03:23.635Z,15.16
2022-08-08T06:06:06.524Z,15.14
2022-08-08T06:08:55.088Z,15.33
2022-08-08T06:11:31.635Z,15.37
2022-08-08T06:13:59.400Z,15.58
2022-08-08T06:16:30.367Z,15.54
2022-08-08T06:19:10.358Z,15.72
2022-08-08T06:21:51.852Z,15.80
2022-08-08T06:24:35.894Z,16.01
2022-08-08T06:27:06.300Z,16.13
2022-08-08T06:30:01.054Z,16.08
2022-08-08T06:32:47.724Z,16.20
2022-08-08T06:36:00.625Z,16.23
2022-08-08T06:38:09.410Z,16.40
2022-08-08T06:40:48.407Z,16.52
2022-08-08T06:43:30.699Z,16.66
2022-08-08T06:46:09.144Z,16.61
2022-08-08T06:48:42.435Z,16.77
2022-08-08T06:51:13.280Z,16.86
2022-08-08T06:53:51.258Z,17.13
2022-08-08T06:56:26.330Z,17.03
2022-08-08T06:58:54.541Z,17.09
2022-08-08T07:02:17.902Z,17.17
2022-08-08T07:04:40.634Z,17.20
2022-08-08T07:07:16.204Z,17.33
2022-08-08T07:10:07.924Z,17.41
2022-08-08T07:12:47.339Z,17.63
2022-08-08T07:16:07.072Z,17.47
2022-08-08T07:18:57.523Z,17.71
2022-08-08T07:21:32.118Z,17.85
2022-08-08T07:24:09.537Z,18.06
2022-08-08T07:26:53.017Z,18.03
2022-08-08T07:29:59.562Z,18.28
2022-08-08T07:32:10.622Z,18.45
2022-08-08T07:34:59.610Z,18.34
2022-08-08T07:37:42.629Z,18.53
2022-08-08T07:40:30.082Z,18.59
2022-08-08T07:43:09.358Z,18.66
2022-08-08T07:46:05.965Z,18.87
2022-08-08T07:48:30.915Z,18.86
2022-08-08T07:51:01.003Z,19.07
2022-08-08T07:54:03.117Z,19.38
2022-08-08T07:56:50.017Z,19.24
2022-08-08T07:59:21.059Z,19.67
2022-08-08T08:02:36.286Z,19.73
2022-08-08T08:04:49.240Z,19.63
2022-08-08T08:07:25.892Z,19.67
2022-08-08T08:10:02.738Z,19.77
2022-08-08T08:12:38.642Z,19.72
2022-08-08T08:15:15.197Z,19.97
2022-08-08T08:17:55.481Z,20.15
2022-08-08T08:20:29.855Z,20.27
2022-08-08T08:22:58.631Z,20.27
2022-08-08T08:25:40.957Z,20.45
2022-08-08T08:28:16.994Z,20.39
2022-08-08T08:30:49.345Z,20.48
2022-08-08T08:33:17.631Z,20.70
2022-08-08T08:36:18.826Z,20.84
2022-08-08T08:38:35.966Z,20.90
2022-08-08T08:41:12.995Z,20.90
2022-08-08T08:43:46.367Z,21.09
2022-08-08T08:46:18.941Z,21.13
2022-08-08T08:48:49.406Z,20.84
2022-08-08T08:51:18.949Z,21.20
2022-08-08T08:54:00.051Z,21.22
2022-08-08T08:56:36.232Z,21.49
2022-08-08T08:59:15.348Z,21.37
2022-08-08T09:01:56.376Z,21.39
2022-08-08T09:04:38.582Z,21.49
2022-08-08T09:07:19.979Z,21.57
2022-08-08T09:09:55.374Z,21.11
2022-08-08T09:12:28.397Z,21.39
2022-08-08T09:14:58.443Z,21.74
2022-08-08T09:17:41.203Z,22.19
2022-08-08T09:21:59.985Z,21.66
2022-08-08T09:23:01.223Z,21.76
2022-08-08T09:25:35.957Z,21.94
2022-08-08T09:28:35.359Z,22.09
2022-08-08T09:31:16.356Z,22.52
2022-08-08T09:34:06.236Z,22.54
2022-08-08T09:36:39.492Z,22.70
2022-08-08T09:39:15.517Z,22.65
2022-08-08T09:42:19.862Z,22.93
2022-08-08T09:45:55.490Z,23.08
2022-08-08T09:48:27.014Z,22.62
2022-08-08T09:51:05.169Z,22.82
2022-08-08T09:53:56.578Z,22.66
2022-08-08T09:56:37.203Z,22.72
2022-08-08T09:59:40.393Z,22.72
2022-08-08T10:02:02.993Z,22.74
2022-08-08T10:04:42.139Z,22.74
2022-08-08T10:07:15.751Z,22.42
2022-08-08T10:10:00.321Z,22.48
2022-08-08T10:12:53.004Z,22.57
2022-08-08T10:15:21.340Z,22.69
2022-08-08T10:17:56.768Z,22.54
2022-08-08T10:20:57.767Z,22.62
2022-08-08T10:23:58.742Z,22.65
2022-08-08T10:26:57.091Z,22.43
2022-08-08T10:29:56.722Z,22.53
2022-08-08T10:32:37.546Z,22.36
2022-08-08T10:36:07.178Z,22.30
2022-08-08T10:38:08.312Z,22.80
2022-08-08T10:40:38.462Z,23.11
2022-08-08T10:43:06.599Z,23.04
2022-08-08T10:45:43.029Z,23.10
2022-08-08T10:48:56.038Z,23.58
2022-08-08T10:51:22.092Z,23.53
2022-08-08T10:53:57.391Z,23.41
2022-08-08T10:56:27.010Z,23.87
2022-08-08T10:58:58.699Z,23.71
2022-08-08T11:01:30.105Z,23.39
2022-08-08T11:04:04.410Z,23.32
2022-08-08T11:06:34.360Z,23.85
2022-08-08T11:09:09.631Z,24.41
2022-08-08T11:12:05.382Z,24.81
2022-08-08T11:14:32.632Z,25.00
2022-08-08T11:16:59.740Z,24.66
2022-08-08T11:19:28.139Z,24.88
2022-08-08T11:21:58.862Z,24.91
2022-08-08T11:24:29.006Z,24.89
2022-08-08T11:27:01.340Z,24.28
2022-08-08T11:30:04.108Z,24.70
2022-08-08T11:32:42.993Z,25.81
2022-08-08T11:35:27.162Z,25.93
2022-08-08T11:38:36.497Z,26.66
2022-08-08T11:40:52.384Z,26.90
2022-08-08T11:43:21.602Z,27.46
2022-08-08T11:46:14.441Z,27.19
2022-08-08T11:48:40.049Z,27.28
2022-08-08T11:51:29.585Z,27.61
2022-08-08T11:54:01.064Z,27.72
2022-08-08T11:56:34.764Z,28.52
2022-08-08T11:59:10.087Z,28.01
2022-08-08T12:01:37.109Z,28.07
2022-08-08T12:04:06.943Z,28.55
2022-08-08T12:06:33.991Z,28.11
2022-08-08T12:09:08.106Z,28.47
2022-08-08T12:11:43.987Z,28.55
2022-08-08T12:14:22.875Z,29.39
2022-08-08T12:16:52.434Z,29.64
2022-08-08T12:19:37.632Z,29.87
2022-08-08T12:22:13.234Z,29.73
2022-08-08T12:24:54.349Z,30.19
2022-08-08T12:27:26.745Z,30.14
2022-08-08T12:29:59.911Z,30.08
2022-08-08T12:32:31.393Z,30.12
2022-08-08T12:35:04.895Z,30.65
2022-08-08T12:38:01.387Z,30.42
2022-08-08T12:40:54.789Z,29.32
2022-08-08T12:43:32.945Z,28.62
2022-08-08T12:46:19.346Z,28.50
2022-08-08T12:49:21.875Z,28.06
2022-08-08T12:51:50.024Z,27.56
2022-08-08T12:54:41.039Z,27.80
2022-08-08T12:57:25.828Z,27.41
2022-08-08T13:00:05.745Z,26.73
2022-08-08T13:02:51.841Z,26.27
2022-08-08T13:05:26.597Z,26.16
2022-08-08T13:08:17.166Z,27.13
2022-08-08T13:10:56.371Z,28.39
2022-08-08T13:13:28.610Z,29.17
2022-08-08T13:16:25.158Z,29.29
2022-08-08T13:19:01.378Z,30.13
2022-08-08T13:21:58.343Z,30.43
2022-08-08T13:24:42.326Z,30.22
2022-08-08T13:27:13.831Z,30.37
2022-08-08T13:29:50.490Z,30.55
2022-08-08T13:32:20.889Z,30.25
2022-08-08T13:34:53.140Z,31.13
2022-08-08T13:37:51.870Z,31.27
2022-08-08T13:40:08.888Z,31.62
2022-08-08T13:42:35.767Z,32.16
2022-08-08T13:45:04.494Z,32.42
2022-08-08T13:47:31.433Z,30.94
2022-08-08T13:50:34.875Z,30.46
2022-08-08T13:52:52.034Z,31.34
2022-08-08T13:55:29.158Z,32.45
2022-08-08T13:58:08.302Z,32.08
2022-08-08T14:00:45.546Z,32.17
2022-08-08T14:03:53.581Z,31.50
2022-08-08T14:06:32.025Z,32.61
2022-08-08T14:08:58.356Z,31.90
2022-08-08T14:11:28.029Z,32.49
2022-08-08T14:13:59.538Z,32.32
2022-08-08T14:16:27.860Z,30.94
2022-08-08T14:18:59.368Z,31.57
2022-08-08T14:21:52.293Z,30.60
2022-08-08T14:24:33.964Z,31.37
2022-08-08T14:27:01.876Z,32.60
2022-08-08T14:29:34.522Z,31.99
2022-08-08T14:32:12.722Z,32.93
2022-08-08T14:34:43.629Z,32.37
2022-08-08T14:37:17.408Z,32.29
2022-08-08T14:39:50.919Z,31.98
2022-08-08T14:42:33.916Z,31.63
2022-08-08T14:45:10.110Z,31.49
2022-08-08T14:47:57.360Z,32.13
2022-08-08T14:50:38.679Z,32.45
2022-08-08T14:53:14.236Z,32.48
2022-08-08T14:55:42.863Z,33.11
2022-08-08T14:58:16.093Z,32.79
2022-08-08T15:00:44.834Z,33.34
2022-08-08T15:03:14.573Z,33.75
2022-08-08T15:05:54.073Z,33.90
2022-08-08T15:08:34.314Z,32.51
2022-08-08T15:11:04.631Z,33.18
2022-08-08T15:13:39.737Z,32.85
2022-08-08T15:16:12.146Z,32.45
2022-08-08T15:18:50.119Z,32.45
2022-08-08T15:21:19.255Z,31.83
2022-08-08T15:23:50.526Z,32.53
2022-08-08T15:26:21.125Z,33.21
2022-08-08T15:28:54.212Z,32.62
2022-08-08T15:31:25.938Z,32.71
2022-08-08T15:34:18.557Z,32.45
2022-08-08T15:36:57.240Z,32.33
2022-08-08T15:39:23.939Z,32.44
2022-08-08T15:41:52.781Z,34.16
2022-08-08T15:44:21.114Z,32.44
2022-08-08T15:46:50.760Z,33.06
2022-08-08T15:49:20.616Z,32.45
2022-08-08T15:51:49.831Z,32.97
2022-08-08T15:54:18.992Z,34.00
2022-08-08T15:57:07.479Z,33.34
2022-08-08T16:00:25.819Z,32.66
2022-08-08T16:02:30.564Z,31.87
2022-08-08T16:04:59.168Z,31.50
2022-08-08T16:07:35.851Z,32.83
2022-08-08T16:13:15.125Z,33.08
2022-08-08T16:13:27.782Z,33.40
2022-08-08T16:15:57.661Z,32.92
2022-08-08T16:18:35.808Z,31.31
2022-08-08T16:21:02.467Z,30.75
2022-08-08T16:23:31.405Z,30.76
2022-08-08T16:26:12.713Z,29.45
2022-08-08T16:28:39.488Z,29.74
2022-08-08T16:31:09.266Z,28.90
2022-08-08T16:33:38.416Z,28.35
2022-08-08T16:36:05.813Z,28.40
2022-08-08T16:38:40.445Z,27.95
2022-08-08T16:41:12.223Z,27.57
2022-08-08T16:43:49.071Z,28.05
2022-08-08T16:46:37.112Z,27.43
2022-08-08T16:49:04.646Z,27.47
2022-08-08T16:55:00.750Z,27.15
2022-08-08T16:55:03.546Z,26.78
2022-08-08T16:58:12.185Z,26.38
2022-08-08T16:59:53.720Z,26.74
2022-08-08T17:02:32.514Z,26.63
2022-08-08T17:05:12.825Z,26.66
2022-08-08T17:07:40.513Z,26.50
2022-08-08T17:10:11.667Z,26.70
2022-08-08T17:12:41.500Z,26.71
2022-08-08T17:15:17.507Z,26.94
2022-08-08T17:18:03.713Z,26.84
2022-08-08T17:20:39.453Z,26.65
2022-08-08T17:23:16.477Z,27.03
2022-08-08T17:25:53.862Z,26.67
2022-08-08T17:28:34.645Z,26.79
2022-08-08T17:31:39.152Z,26.50
2022-08-08T17:34:49.090Z,26.29
2022-08-08T17:37:00.462Z,26.55
2022-08-08T17:40:04.696Z,26.43
2022-08-08T17:42:15.022Z,25.92
2022-08-08T17:44:44.194Z,26.47
2022-08-08T17:47:23.282Z,26.49
2022-08-08T17:49:52.951Z,26.09
2022-08-08T17:52:24.013Z,25.93
2022-08-08T17:54:55.767Z,25.77
2022-08-08T17:57:22.892Z,25.65
2022-08-08T17:59:49.537Z,25.38
2022-08-08T18:02:29.121Z,25.28
2022-08-08T18:04:58.519Z,25.28
2022-08-08T18:08:02.424Z,25.17
2022-08-08T18:10:15.278Z,24.97
2022-08-08T18:12:42.754Z,25.05
2022-08-08T18:15:12.066Z,24.97
2022-08-08T18:18:09.323Z,24.69
2022-08-08T18:20:43.910Z,24.81
2022-08-08T18:23:15.040Z,24.73
2022-08-08T18:25:43.478Z,24.58
2022-08-08T18:28:13.266Z,24.54
2022-08-08T18:30:41.796Z,24.27
2022-08-08T18:33:36.342Z,24.24
2022-08-08T18:36:03.245Z,24.08
2022-08-08T18:38:34.189Z,23.83
2022-08-08T18:41:03.168Z,23.75
2022-08-08T18:43:42.820Z,23.49
2022-08-08T18:46:55.690Z,23.26
2022-08-08T18:48:58.003Z,23.58
2022-08-08T18:51:52.401Z,23.53
2022-08-08T18:54:24.781Z,23.26
2022-08-08T18:56:57.186Z,23.31
2022-08-08T18:59:24.145Z,23.01
2022-08-08T19:02:25.426Z,23.07
2022-08-08T19:04:38.157Z,22.96
2022-08-08T19:07:05.004Z,22.81
2022-08-08T19:09:49.454Z,22.88
2022-08-08T19:12:19.146Z,22.75
2022-08-08T19:14:46.561Z,22.60
2022-08-08T19:17:13.426Z,22.59
2022-08-08T19:20:02.839Z,22.53
2022-08-08T19:22:29.992Z,22.37
2022-08-08T19:26:00.989Z,22.32
2022-08-08T19:27:57.343Z,22.26
2022-08-08T19:30:27.999Z,22.21
2022-08-08T19:32:58.039Z,22.19
2022-08-08T19:35:45.234Z,22.15
2022-08-08T19:38:16.434Z,21.96
2022-08-08T19:40:44.021Z,22.01
2022-08-08T19:43:11.920Z,22.07
2022-08-08T19:45:59.565Z,22.05
2022-08-08T19:48:29.354Z,21.84
2022-08-08T19:51:01.642Z,21.72
2022-08-08T19:53:53.424Z,21.69
2022-08-08T19:56:25.470Z,21.62
2022-08-08T19:59:04.322Z,21.57
2022-08-08T20:02:00.963Z,21.50
2022-08-08T20:04:23.553Z,21.64
2022-08-08T20:06:51.076Z,21.54
2022-08-08T20:09:22.975Z,21.50
2022-08-08T20:11:52.844Z,21.43
2022-08-08T20:14:33.351Z,21.48
2022-08-08T20:17:04.115Z,21.25
2022-08-08T20:19:34.869Z,21.09
2022-08-08T20:22:13.059Z,21.00
2022-08-08T20:24:48.281Z,20.86
2022-08-08T20:27:20.246Z,20.81
2022-08-08T20:30:00.495Z,20.68
2022-08-08T20:32:29.529Z,20.52
2022-08-08T20:35:01.357Z,20.64
2022-08-08T20:37:46.891Z,20.60
2022-08-08T20:40:17.231Z,20.65
2022-08-08T20:42:54.710Z,20.67
2022-08-08T20:45:54.752Z,20.53
2022-08-08T20:48:09.428Z,20.31
2022-08-08T20:50:36.496Z,20.29
2022-08-08T20:53:06.870Z,20.28
2022-08-08T20:55:42.950Z,20.31
2022-08-08T20:58:13.997Z,20.12
2022-08-08T21:00:50.218Z,20.02
2022-08-08T21:03:17.372Z,19.87
2022-08-08T21:05:49.146Z,19.79
2022-08-08T21:08:36.017Z,19.92
2022-08-08T21:11:12.614Z,19.81
2022-08-08T21:13:42.099Z,19.75
2022-08-08T21:16:17.986Z,19.66
2022-08-08T21:18:47.805Z,19.60
2022-08-08T21:21:19.766Z,19.52
2022-08-08T21:23:58.916Z,19.51
2022-08-08T21:26:30.103Z,19.47
2022-08-08T21:29:01.073Z,19.48
2022-08-08T21:31:53.162Z,19.35
2022-08-08T21:34:18.834Z,19.27
2022-08-08T21:36:53.870Z,19.36
2022-08-08T21:39:23.894Z,19.32
2022-08-08T21:42:08.661Z,19.30
2022-08-08T21:44:37.923Z,19.27
2022-08-08T21:48:04.262Z,19.16
2022-08-08T21:50:11.746Z,19.11
2022-08-08T21:54:30.978Z,19.16
2022-08-08T21:56:26.786Z,19.08
2022-08-08T21:58:13.568Z,18.92
2022-08-08T22:00:41.143Z,18.96
2022-08-08T22:03:07.995Z,18.91
2022-08-08T22:05:41.697Z,18.88
2022-08-08T22:08:08.457Z,18.93
2022-08-08T22:10:35.547Z,18.82
2022-08-08T22:13:18.805Z,18.84
2022-08-08T22:15:59.770Z,18.85
2022-08-08T22:18:31.609Z,18.75
2022-08-08T22:21:11.108Z,18.61
2022-08-08T22:23:49.359Z,18.70
2022-08-08T22:26:27.955Z,18.71
2022-08-08T22:29:14.411Z,18.73
2022-08-08T22:32:01.734Z,18.46
2022-08-08T22:34:39.283Z,18.57
2022-08-08T22:37:07.103Z,18.44
2022-08-08T22:40:00.398Z,18.42
2022-08-08T22:42:31.861Z,18.39
2022-08-08T22:45:01.736Z,18.29
2022-08-08T22:47:34.558Z,18.13
2022-08-08T22:50:21.645Z,18.05
2022-08-08T22:53:22.609Z,18.16
2022-08-08T22:55:55.993Z,18.10
2022-08-08T22:58:33.180Z,18.00
2022-08-08T23:01:26.891Z,17.93
2022-08-08T23:03:57.541Z,18.06
2022-08-08T23:06:27.251Z,17.96
2022-08-08T23:08:59.047Z,17.99
2022-08-08T23:11:58.080Z,17.96
2022-08-08T23:14:20.544Z,17.79
2022-08-08T23:16:54.712Z,17.81
2022-08-08T23:19:32.231Z,17.84
2022-08-08T23:22:01.113Z,17.81
2022-08-08T23:24:28.220Z,17.94
2022-08-08T23:27:05.495Z,17.87
2022-08-08T23:29:32.671Z,17.70
2022-08-08T23:31:59.547Z,17.80
2022-08-08T23:34:29.414Z,17.65
2022-08-08T23:36:58.406Z,17.61
2022-08-08T23:39:31.910Z,17.52
2022-08-08T23:42:00.779Z,17.44
2022-08-08T23:44:28.747Z,17.53
2022-08-08T23:49:00.273Z,17.48
2022-08-08T23:49:49.620Z,17.54
2022-08-08T23:52:30.341Z,17.60
2022-08-08T23:55:07.396Z,17.61
2022-08-08T23:57:52.934Z,17.71
